Terminal Aerodrome Forecast
Issued by NWS

Home | Current Version | Previous Version | Text Only | Print | Product List | Glossary On
Versions: 1 2 3 4 5 6 7 8 9 10 11 12 13 14 15 16
000
FTUS41 KRNK 271140
TAFLWB
TAF
KLWB 271140Z 2712/2812 VRB03KT P6SM SCT250
     FM271600 20008G14KT P6SM SCT040 BKN250
     FM272100 22008G20KT P6SM -SHRA VCTS BKN040CB OVC100
     FM280000 24004KT P6SM SCT050 BKN150
     FM280400 00000KT 4SM BR SCT015
     FM280800 00000KT 1/4SM FG VV002=

USA.gov is the U.S. government's official web portal to all federal, state and local government web resources and services.